Time;durP1;ratioP1;P1;durP2;ratioP2;P2;SDS_P1;SDS_P2;PMS_P1;PMS_P2;Temp;Humidity;BMP_temperature;BMP_pressure;BME280_temperature;BME280_humidity;BME280_pressure;Samples;Min_cycle;Max_cycle;Signal;HPM_P1;HPM_P2
2021/12/11 00:01:00;;;;;;;16.52;13.38;;;;;;;7.82;70.60;100695.06;2544712;23;20386;-71
2021/12/11 00:02:23;;;;;;;17.58;14.27;;;;;;;7.82;70.51;100693.09;2531942;23;20532;-72
2021/12/11 00:03:28;;;;;;;16.80;13.23;;;;;;;7.79;70.97;100685.66;2536525;23;20581;-72
2021/12/11 00:04:33;;;;;;;16.75;13.55;;;;;;;7.78;70.73;100688.81;2544817;23;20159;-72
2021/12/11 00:05:36;;;;;;;16.80;13.63;;;;;;;7.37;70.79;100627.41;2544937;23;20152;-72
2021/12/11 00:06:40;;;;;;;17.75;14.25;;;;;;;7.81;71.04;100693.53;2544736;23;20154;-72
2021/12/11 00:07:42;;;;;;;16.73;14.05;;;;;;;7.74;70.80;100683.34;2544641;23;20542;-71
2021/12/11 00:08:45;;;;;;;16.45;13.32;;;;;;;7.78;71.31;100688.81;2531708;23;20632;-72
2021/12/11 00:09:53;;;;;;;17.92;14.65;;;;;;;7.82;71.16;100690.34;2532120;23;20172;-72
2021/12/11 00:11:04;;;;;;;17.58;14.10;;;;;;;7.68;71.00;100681.47;2545001;23;20153;-72
2021/12/11 00:12:13;;;;;;;17.60;14.13;;;;;;;7.72;71.18;100696.78;2544829;23;20134;-72
2021/12/11 00:13:22;;;;;;;16.25;13.15;;;;;;;7.78;70.64;100706.16;2544336;23;20215;-72
2021/12/11 00:14:24;;;;;;;17.50;12.90;;;;;;;7.36;70.96;100636.88;2544879;23;20533;-72
2021/12/11 00:15:32;;;;;;;15.75;12.82;;;;;;;7.81;71.21;100710.88;2544682;23;20153;-72
2021/12/11 00:16:35;;;;;;;16.55;13.65;;;;;;;7.74;71.09;100691.63;2544774;23;20142;-72
2021/12/11 00:17:35;;;;;;;16.05;13.50;;;;;;;6.88;71.05;100564.56;2544793;23;20157;-72
2021/12/11 00:18:38;;;;;;;14.87;12.67;;;;;;;7.80;70.81;100712.03;2544553;23;20229;-72
2021/12/11 00:19:40;;;;;;;17.65;13.50;;;;;;;7.87;70.49;100724.97;2531856;23;20162;-72
2021/12/11 00:20:50;;;;;;;15.18;12.43;;;;;;;7.90;70.58;100721.41;2531830;23;20160;-72
2021/12/11 00:21:52;;;;;;;15.80;12.40;;;;;;;7.87;70.39;100709.22;2544674;23;20166;-72
2021/12/11 00:22:53;;;;;;;16.20;13.20;;;;;;;7.87;69.98;100713.94;2543392;23;20205;-71
2021/12/11 00:24:11;;;;;;;16.35;13.10;;;;;;;7.60;70.07;100678.00;2544633;23;20416;-71
2021/12/11 00:25:13;;;;;;;16.23;13.20;;;;;;;7.83;70.76;100715.94;2532563;23;20597;-72
2021/12/11 00:26:22;;;;;;;17.92;13.85;;;;;;;7.75;70.15;100704.22;2532877;23;20217;-71
2021/12/11 00:27:27;;;;;;;15.57;12.85;;;;;;;7.82;69.50;100720.69;2545518;23;20149;-72
2021/12/11 00:28:28;;;;;;;16.98;13.20;;;;;;;7.78;69.66;100722.72;2545387;23;20227;-72
2021/12/11 00:29:29;;;;;;;17.80;14.23;;;;;;;7.78;69.88;100724.66;2532558;23;20314;-72
2021/12/11 00:30:36;;;;;;;16.92;13.60;;;;;;;6.90;69.84;100586.97;2532578;23;20212;-72
2021/12/11 00:31:42;;;;;;;16.95;14.07;;;;;;;7.78;70.07;100721.91;2545646;23;20554;-72
2021/12/11 00:32:43;;;;;;;18.02;14.32;;;;;;;7.32;69.72;100658.97;2544166;23;20138;-72
2021/12/11 00:33:45;;;;;;;18.53;14.67;;;;;;;7.78;70.32;100727.44;2545482;23;20349;-72
2021/12/11 00:34:46;;;;;;;19.73;15.95;;;;;;;7.79;70.74;100724.28;2532367;23;20170;-72
2021/12/11 00:35:49;;;;;;;18.58;14.45;;;;;;;7.73;70.40;100714.88;2532013;23;20152;-72
2021/12/11 00:36:53;;;;;;;17.63;14.32;;;;;;;6.86;70.59;100575.19;2545548;23;20233;-72
2021/12/11 00:38:01;;;;;;;17.85;14.45;;;;;;;7.79;70.78;100724.28;2545347;23;20176;-71
2021/12/11 00:39:11;;;;;;;16.85;14.00;;;;;;;7.76;70.87;100727.88;2545534;23;20141;-72
2021/12/11 00:40:24;;;;;;;18.25;14.52;;;;;;;6.94;70.65;100599.53;2545434;23;20527;-71
2021/12/11 00:41:25;;;;;;;17.23;14.57;;;;;;;7.76;70.62;100724.31;2532545;23;20150;-72
2021/12/11 00:42:33;;;;;;;18.10;14.30;;;;;;;7.78;70.99;100727.44;2531303;23;20174;-72
2021/12/11 00:43:35;;;;;;;18.60;14.55;;;;;;;7.71;71.26;100722.78;2545486;23;20586;-72
2021/12/11 00:45:05;;;;;;;19.63;14.82;;;;;;;7.61;70.83;100711.88;2545507;23;20173;-71
2021/12/11 00:46:09;;;;;;;17.02;13.77;;;;;;;7.45;71.36;100673.84;2529352;23;20192;-72
2021/12/11 00:47:20;;;;;;;17.92;14.75;;;;;;;7.79;71.23;100713.22;2545506;23;20149;-72
2021/12/11 00:48:24;;;;;;;19.13;14.40;;;;;;;7.77;70.80;100710.13;2545614;23;20614;-72
2021/12/11 00:49:28;;;;;;;18.65;14.77;;;;;;;7.78;71.10;100714.44;2545193;23;20160;-72
2021/12/11 00:50:38;;;;;;;20.65;15.20;;;;;;;7.79;71.13;100704.97;2545231;23;20161;-71
2021/12/11 00:51:39;;;;;;;18.58;14.63;;;;;;;7.77;71.15;100707.34;2545510;23;20146;-72
2021/12/11 00:52:47;;;;;;;19.17;15.02;;;;;;;7.70;70.86;100701.13;2544003;23;20158;-72
2021/12/11 00:53:53;;;;;;;19.15;15.20;;;;;;;7.64;70.72;100703.53;2545460;23;20184;-72
2021/12/11 00:54:54;;;;;;;20.55;16.23;;;;;;;7.59;71.18;100701.22;2545516;23;20178;-72
2021/12/11 00:55:58;;;;;;;18.93;15.20;;;;;;;7.61;71.22;100707.16;2545471;23;20153;-72
2021/12/11 00:56:59;;;;;;;18.42;14.18;;;;;;;7.63;71.58;100703.97;2545279;23;20605;-72
2021/12/11 00:58:17;;;;;;;22.37;17.13;;;;;;;7.61;70.85;100704.38;2545266;23;20528;-72
2021/12/11 00:59:20;;;;;;;21.20;16.35;;;;;;;7.64;71.10;100711.81;2545516;23;20153;-72
2021/12/11 01:00:23;;;;;;;22.05;17.35;;;;;;;7.65;71.14;100710.66;2545261;23;20252;-72
2021/12/11 01:01:28;;;;;;;21.83;17.27;;;;;;;7.68;71.22;100709.06;2545344;23;20258;-72
2021/12/11 01:02:28;;;;;;;21.95;17.13;;;;;;;7.70;71.21;100707.41;2544123;23;20151;-72
2021/12/11 01:03:44;;;;;;;23.17;17.43;;;;;;;7.67;71.17;100712.97;2545501;23;20190;-72
2021/12/11 01:04:45;;;;;;;22.75;17.23;;;;;;;7.60;71.05;100702.03;2532407;23;20175;-72
2021/12/11 01:05:51;;;;;;;21.60;17.30;;;;;;;7.56;71.37;100710.34;2532332;23;20330;-72
2021/12/11 01:07:18;;;;;;;22.25;16.85;;;;;;;7.46;70.68;100699.41;2545501;23;20218;-72
2021/12/11 01:08:34;;;;;;;20.52;15.60;;;;;;;7.32;71.25;100703.09;2545486;23;20229;-72
2021/12/11 01:10:13;;;;;;;22.88;16.98;;;;;;;7.22;71.06;100689.44;2545414;23;20148;-72
2021/12/11 01:11:37;;;;;;;25.17;16.90;;;;;;;7.21;71.48;100723.66;2539507;23;20154;-72
2021/12/11 01:12:50;;;;;;;24.02;16.98;;;;;;;7.12;72.19;100718.63;2542848;23;20166;-72
2021/12/11 01:14:16;;;;;;;23.95;17.83;;;;;;;6.66;72.27;100649.34;2545344;23;20518;-72
2021/12/11 01:15:25;;;;;;;21.48;16.35;;;;;;;7.14;72.38;100718.22;2545362;23;20154;-72
2021/12/11 01:16:26;;;;;;;22.77;17.00;;;;;;;6.86;72.51;100666.09;2545459;23;20149;-72
2021/12/11 01:17:41;;;;;;;22.73;17.77;;;;;;;7.28;72.08;100716.13;2545387;23;20593;-72
2021/12/11 01:18:46;;;;;;;22.95;17.25;;;;;;;7.18;71.93;100694.94;2545393;23;20223;-72
2021/12/11 01:19:51;;;;;;;22.77;17.77;;;;;;;7.24;71.76;100696.09;2545314;23;20142;-72
2021/12/11 01:21:43;;;;;;;24.58;17.27;;;;;;;6.80;71.54;100612.63;2545415;23;20169;-72
2021/12/11 01:22:44;;;;;;;23.15;17.17;;;;;;;7.39;71.50;100716.03;2530899;23;20213;-72
2021/12/11 01:24:07;;;;;;;23.60;17.63;;;;;;;7.39;71.73;100688.47;2532380;23;20150;-72
2021/12/11 01:25:12;;;;;;;25.35;18.77;;;;;;;7.40;72.07;100692.78;2545129;23;20585;-72
2021/12/11 01:26:20;;;;;;;23.88;18.00;;;;;;;7.44;72.27;100699.06;2545271;23;20233;-72
2021/12/11 01:27:25;;;;;;;25.30;17.88;;;;;;;7.44;71.87;100699.81;2532154;23;20172;-72
2021/12/11 01:28:26;;;;;;;25.88;19.30;;;;;;;7.41;72.09;100694.34;2533050;23;20155;-72
2021/12/11 01:29:29;;;;;;;26.23;19.77;;;;;;;7.34;71.82;100686.91;2545351;23;20608;-72
2021/12/11 01:30:38;;;;;;;26.25;18.77;;;;;;;7.16;72.23;100683.56;2545144;23;20184;-72
2021/12/11 01:31:39;;;;;;;27.63;20.10;;;;;;;7.06;72.61;100686.41;2545351;23;20142;-72
2021/12/11 01:32:40;;;;;;;29.13;21.30;;;;;;;6.71;72.73;100645.38;2543706;23;20241;-72
2021/12/11 01:33:41;;;;;;;28.00;19.92;;;;;;;6.46;72.47;100575.97;2545117;23;20385;-72
2021/12/11 01:34:44;;;;;;;25.73;19.53;;;;;;;6.67;72.48;100590.31;2532047;23;20238;-72
2021/12/11 01:35:46;;;;;;;27.08;19.52;;;;;;;7.36;72.21;100675.47;2532592;23;20155;-72
2021/12/11 01:36:47;;;;;;;26.50;19.33;;;;;;;7.40;71.63;100679.00;2545381;23;20244;-72
2021/12/11 01:37:49;;;;;;;27.85;19.85;;;;;;;7.35;72.04;100665.66;2545144;23;20257;-72
2021/12/11 01:38:59;;;;;;;24.05;18.17;;;;;;;7.47;71.73;100670.63;2545331;23;20150;-72
2021/12/11 01:40:01;;;;;;;25.17;18.48;;;;;;;7.48;71.38;100673.00;2545263;23;20574;-72
2021/12/11 01:41:10;;;;;;;26.08;18.40;;;;;;;7.52;71.44;100670.19;2545177;23;20147;-72
2021/12/11 01:42:22;;;;;;;25.92;18.58;;;;;;;7.58;71.37;100674.09;2531713;23;20670;-72
2021/12/11 01:43:25;;;;;;;23.73;17.73;;;;;;;7.56;71.28;100670.94;2534664;23;20143;-72
2021/12/11 01:44:32;;;;;;;21.52;17.27;;;;;;;7.65;71.13;100672.03;2532301;23;20221;-71
2021/12/11 01:45:36;;;;;;;23.65;17.23;;;;;;;7.67;70.93;100671.59;2533675;23;20158;-72
2021/12/11 01:46:38;;;;;;;23.73;18.27;;;;;;;7.69;70.95;100669.25;2544709;23;20269;-72
2021/12/11 01:47:43;;;;;;;22.20;17.52;;;;;;;7.66;70.88;100670.84;2545217;23;20177;-72
2021/12/11 01:48:48;;;;;;;23.65;16.85;;;;;;;7.65;70.85;100671.25;2545305;23;20256;-72
2021/12/11 01:49:53;;;;;;;23.20;16.88;;;;;;;6.81;71.07;100543.38;2545105;23;20624;-72
2021/12/11 01:51:05;;;;;;;20.90;15.43;;;;;;;7.55;71.16;100658.34;2532279;23;20597;-72
2021/12/11 01:52:18;;;;;;;21.08;15.50;;;;;;;7.58;71.04;100663.06;2534020;23;20243;-72
2021/12/11 01:53:26;;;;;;;21.30;16.60;;;;;;;7.62;70.78;100661.81;2545149;23;20146;-71
2021/12/11 01:54:38;;;;;;;20.45;16.10;;;;;;;7.64;70.93;100655.91;2545138;23;20230;-72
2021/12/11 01:55:46;;;;;;;22.13;16.27;;;;;;;7.66;70.76;100639.72;2545134;23;20149;-72
2021/12/11 01:56:53;;;;;;;22.20;16.25;;;;;;;7.58;70.83;100639.00;2545205;23;20173;-72
2021/12/11 01:57:54;;;;;;;21.20;16.00;;;;;;;7.60;70.90;100636.63;2545099;23;20577;-72
2021/12/11 01:59:14;;;;;;;21.52;16.70;;;;;;;7.13;70.73;100565.09;2545232;23;20201;-72
2021/12/11 02:00:21;;;;;;;21.55;16.17;;;;;;;7.58;71.17;100627.22;2545348;23;20142;-72
2021/12/11 02:01:33;;;;;;;22.02;16.75;;;;;;;6.75;71.34;100511.97;2545127;23;20602;-72
2021/12/11 02:02:38;;;;;;;24.83;17.33;;;;;;;7.37;71.71;100606.16;2543767;23;20142;-72
2021/12/11 02:03:39;;;;;;;24.63;18.35;;;;;;;7.32;71.96;100601.09;2545123;23;20153;-72
2021/12/11 02:04:44;;;;;;;25.20;18.30;;;;;;;7.40;71.95;100608.09;2544980;23;20162;-72
2021/12/11 02:05:44;;;;;;;22.60;16.55;;;;;;;7.47;71.71;100610.78;2531915;23;20398;-72
2021/12/11 02:06:47;;;;;;;23.23;17.40;;;;;;;7.50;71.48;100609.16;2532250;23;20161;-72
2021/12/11 02:07:52;;;;;;;20.67;16.05;;;;;;;7.52;71.48;100610.31;2532229;23;20159;-72
2021/12/11 02:08:53;;;;;;;19.92;15.43;;;;;;;7.53;71.36;100602.84;2533031;23;20222;-72
2021/12/11 02:09:59;;;;;;;19.07;13.87;;;;;;;6.67;70.88;100482.94;2544799;23;20154;-72
2021/12/11 02:11:05;;;;;;;19.02;14.45;;;;;;;7.60;70.46;100603.53;2545091;23;20136;-72
2021/12/11 02:12:11;;;;;;;18.67;13.80;;;;;;;7.60;70.56;100628.38;2545093;23;20158;-72
2021/12/11 02:13:29;;;;;;;18.10;13.00;;;;;;;7.55;70.82;100608.72;2544482;23;20146;-72
2021/12/11 02:14:36;;;;;;;18.43;13.03;;;;;;;7.44;71.07;100605.31;2545182;23;20144;-72
2021/12/11 02:15:45;;;;;;;17.87;12.80;;;;;;;7.49;70.98;100611.13;2545129;23;20704;-72
2021/12/11 02:16:48;;;;;;;17.33;12.60;;;;;;;6.78;70.93;100485.59;2545127;23;20454;-72
2021/12/11 02:18:23;;;;;;;18.73;13.30;;;;;;;7.61;70.85;100615.34;2544979;23;20160;-72
2021/12/11 02:19:32;;;;;;;16.20;13.30;;;;;;;7.63;70.49;100605.47;2537038;23;20903;-72
2021/12/11 02:20:37;;;;;;;19.37;14.17;;;;;;;7.68;70.70;100601.47;2545038;23;20399;-72
2021/12/11 02:21:51;;;;;;;18.53;14.30;;;;;;;7.71;70.50;100597.88;2545189;23;20372;-72
2021/12/11 02:22:52;;;;;;;17.60;13.70;;;;;;;7.72;70.42;100603.00;2543512;23;20491;-72
2021/12/11 02:24:16;;;;;;;17.87;13.93;;;;;;;7.79;70.49;100597.38;2544795;23;20403;-72
2021/12/11 02:25:30;;;;;;;18.45;13.38;;;;;;;7.85;70.18;100600.47;2544947;23;20384;-72
2021/12/11 02:26:34;;;;;;;18.20;13.65;;;;;;;7.33;70.27;100522.72;2545044;23;20184;-71
2021/12/11 02:27:46;;;;;;;17.23;12.87;;;;;;;7.87;70.06;100607.13;2545157;23;20177;-72
2021/12/11 02:28:52;;;;;;;19.25;13.85;;;;;;;7.77;69.55;100601.75;2545066;23;20368;-72
2021/12/11 02:30:01;;;;;;;17.92;13.57;;;;;;;7.16;70.06;100518.22;2531509;23;20184;-72
2021/12/11 02:31:08;;;;;;;17.80;13.45;;;;;;;7.90;69.98;100622.84;2534080;23;20501;-72
2021/12/11 02:32:19;;;;;;;19.42;14.35;;;;;;;7.92;70.41;100620.47;2544718;23;20545;-72
2021/12/11 02:33:23;;;;;;;18.83;14.20;;;;;;;7.93;70.20;100613.75;2544890;23;20148;-72
2021/12/11 02:34:39;;;;;;;18.43;14.33;;;;;;;7.99;70.25;100619.59;2545073;23;20380;-72
2021/12/11 02:36:07;;;;;;;20.00;14.90;;;;;;;6.98;69.47;100476.28;2532127;23;20399;-72
2021/12/11 02:37:14;;;;;;;18.73;14.43;;;;;;;7.97;69.85;100616.44;2537754;23;20818;-72
2021/12/11 02:38:36;;;;;;;19.43;14.67;;;;;;;7.92;70.12;100641.75;2545048;23;20141;-72
2021/12/11 02:39:50;;;;;;;19.70;14.10;;;;;;;7.89;69.98;100621.28;2544939;23;20774;-72
2021/12/11 02:41:16;;;;;;;21.70;15.33;;;;;;;7.96;69.99;100634.22;2545124;23;20366;-72
2021/12/11 02:42:28;;;;;;;19.20;15.03;;;;;;;7.98;69.85;100629.84;2543871;23;20368;-72
2021/12/11 02:43:50;;;;;;;19.97;14.67;;;;;;;8.01;70.24;100651.09;2545090;23;20900;-72
2021/12/11 02:44:59;;;;;;;21.83;15.82;;;;;;;7.90;69.74;100624.84;2544983;23;20365;-72
2021/12/11 02:46:02;;;;;;;21.45;16.02;;;;;;;8.03;70.03;100634.09;2544815;23;20170;-72
2021/12/11 02:47:09;;;;;;;21.67;15.70;;;;;;;8.03;69.73;100636.88;2544386;23;20210;-72
2021/12/11 02:48:15;;;;;;;20.03;15.30;;;;;;;7.91;69.86;100621.66;2545083;23;20414;-72
2021/12/11 02:49:58;;;;;;;21.13;14.93;;;;;;;8.01;69.56;100645.59;2544974;23;20362;-72
2021/12/11 02:51:40;;;;;;;23.25;16.20;;;;;;;8.02;69.55;100651.88;2544945;23;20444;-72
2021/12/11 02:52:50;;;;;;;19.17;14.20;;;;;;;8.03;69.62;100650.66;2524280;23;20163;-72
2021/12/11 02:53:59;;;;;;;20.50;15.60;;;;;;;7.21;69.67;100550.81;2531937;23;20153;-72
2021/12/11 02:55:13;;;;;;;19.80;14.65;;;;;;;7.93;69.91;100655.13;2533963;23;20212;-72
2021/12/11 02:56:19;;;;;;;19.38;14.50;;;;;;;7.92;69.87;100655.53;2545098;23;20131;-72
2021/12/11 02:57:34;;;;;;;19.83;14.73;;;;;;;7.91;70.11;100649.25;2544790;23;20489;-72
2021/12/11 02:58:38;;;;;;;17.73;13.60;;;;;;;7.98;69.95;100656.66;2544719;23;20142;-72
2021/12/11 02:59:43;;;;;;;22.02;15.20;;;;;;;8.04;69.69;100663.28;2544931;23;20162;-72
2021/12/11 03:00:54;;;;;;;20.77;14.50;;;;;;;8.00;69.97;100660.56;2545062;23;20154;-72
2021/12/11 03:02:05;;;;;;;21.27;14.60;;;;;;;7.78;69.88;100623.41;2544962;23;20899;-72
2021/12/11 03:03:08;;;;;;;19.27;14.13;;;;;;;7.88;70.13;100649.28;2543815;23;20766;-72
2021/12/11 03:04:24;;;;;;;19.80;13.93;;;;;;;7.32;69.62;100554.22;2531930;23;20684;-72
2021/12/11 03:05:35;;;;;;;19.83;14.00;;;;;;;8.00;69.78;100657.03;2535249;23;20580;-72
2021/12/11 03:06:43;;;;;;;19.57;13.93;;;;;;;7.95;69.88;100658.25;2544821;23;20371;-72
2021/12/11 03:07:50;;;;;;;19.83;13.83;;;;;;;7.17;69.84;100547.31;2531757;23;20390;-72
2021/12/11 03:08:54;;;;;;;18.83;13.43;;;;;;;7.96;69.88;100657.06;2533455;23;20879;-72
2021/12/11 03:09:56;;;;;;;19.53;14.27;;;;;;;7.98;70.04;100657.44;2544681;23;20377;-72
2021/12/11 03:11:02;;;;;;;19.13;14.47;;;;;;;7.98;70.06;100654.69;2544936;23;20876;-72
2021/12/11 03:12:06;;;;;;;19.43;14.03;;;;;;;7.88;70.22;100644.56;2545018;23;20451;-72
2021/12/11 03:13:07;;;;;;;20.37;14.23;;;;;;;6.92;70.19;100497.22;2530506;23;20809;-72
2021/12/11 03:14:12;;;;;;;19.00;14.50;;;;;;;8.00;70.57;100649.50;2532017;23;20440;-72
2021/12/11 03:15:17;;;;;;;21.33;14.43;;;;;;;8.04;70.29;100658.53;2544867;23;20604;-72
2021/12/11 03:16:25;;;;;;;18.40;13.67;;;;;;;8.08;70.22;100647.44;2545146;23;20699;-72
2021/12/11 03:17:27;;;;;;;18.63;13.20;;;;;;;7.24;69.81;100529.94;2544971;23;20775;-72
2021/12/11 03:18:28;;;;;;;17.60;13.13;;;;;;;7.97;69.85;100647.59;2544894;23;20380;-72
2021/12/11 03:19:31;;;;;;;19.13;13.50;;;;;;;7.88;70.16;100632.72;2544873;23;20392;-72
2021/12/11 03:20:36;;;;;;;19.37;13.90;;;;;;;7.19;69.94;100533.13;2544692;23;20155;-72
2021/12/11 03:21:37;;;;;;;20.20;14.60;;;;;;;7.92;70.14;100644.50;2531806;23;20391;-72
2021/12/11 03:22:42;;;;;;;19.27;14.63;;;;;;;7.97;70.16;100644.03;2530469;23;20842;-72
2021/12/11 03:23:43;;;;;;;19.10;14.17;;;;;;;7.84;69.79;100637.53;2531828;23;20247;-72
2021/12/11 03:24:44;;;;;;;18.93;13.73;;;;;;;7.14;69.74;100531.63;2532107;23;20383;-72
2021/12/11 03:25:45;;;;;;;19.20;14.03;;;;;;;7.87;70.04;100648.50;2544534;23;20392;-72
2021/12/11 03:26:51;;;;;;;18.77;13.93;;;;;;;7.90;70.31;100650.44;2544976;23;20179;-72
2021/12/11 03:27:52;;;;;;;18.73;14.13;;;;;;;7.78;70.02;100641.91;2544773;23;20588;-72
2021/12/11 03:28:53;;;;;;;19.77;14.73;;;;;;;7.64;70.54;100628.31;2544834;23;20741;-72
2021/12/11 03:29:54;;;;;;;17.43;13.50;;;;;;;7.61;70.94;100646.47;2544921;23;20412;-72
2021/12/11 03:31:00;;;;;;;17.33;13.53;;;;;;;7.62;70.82;100650.00;2544916;23;20183;-72
2021/12/11 03:32:04;;;;;;;20.70;14.07;;;;;;;7.25;71.22;100595.69;2545012;23;20136;-72
2021/12/11 03:33:13;;;;;;;20.13;14.67;;;;;;;7.66;70.88;100648.78;2530538;23;20498;-72
2021/12/11 03:34:18;;;;;;;18.40;13.37;;;;;;;7.67;71.29;100636.53;2533496;23;20348;-72
2021/12/11 03:35:20;;;;;;;16.17;12.97;;;;;;;7.78;70.95;100642.72;2544839;23;20874;-72
2021/12/11 03:36:22;;;;;;;19.02;13.57;;;;;;;7.73;70.84;100639.59;2544908;23;20459;-72
2021/12/11 03:37:23;;;;;;;18.13;12.97;;;;;;;7.70;71.13;100668.81;2544957;23;20178;-72
2021/12/11 03:38:25;;;;;;;19.57;14.27;;;;;;;7.70;71.03;100635.69;2544953;23;20387;-72
2021/12/11 03:39:33;;;;;;;18.10;13.20;;;;;;;7.75;70.48;100637.25;2544962;23;20152;-72
2021/12/11 03:40:34;;;;;;;18.53;14.20;;;;;;;7.32;70.81;100573.53;2544830;23;20863;-72
2021/12/11 03:41:35;;;;;;;18.30;13.47;;;;;;;7.79;70.98;100643.50;2544809;23;20432;-72
2021/12/11 03:42:39;;;;;;;16.87;12.60;;;;;;;7.13;70.95;100532.78;2543434;23;20480;-72
2021/12/11 03:43:41;;;;;;;19.00;13.60;;;;;;;7.90;70.49;100641.38;2544853;23;20391;-72
2021/12/11 03:44:43;;;;;;;18.43;13.97;;;;;;;7.56;70.43;100599.25;2544824;23;20381;-72
2021/12/11 03:45:47;;;;;;;16.73;13.00;;;;;;;7.57;70.43;100579.53;2544588;23;20380;-72
2021/12/11 03:46:53;;;;;;;18.67;14.07;;;;;;;7.92;70.22;100639.78;2544799;23;20393;-72
2021/12/11 03:48:02;;;;;;;16.73;13.03;;;;;;;7.89;70.49;100643.34;2544661;23;20376;-72
2021/12/11 03:49:07;;;;;;;18.77;14.00;;;;;;;7.87;70.48;100642.19;2544781;23;20450;-72
2021/12/11 03:50:12;;;;;;;18.97;13.73;;;;;;;7.46;70.29;100589.13;2544872;23;20393;-72
2021/12/11 03:51:16;;;;;;;19.70;13.77;;;;;;;7.89;70.64;100639.84;2544702;23;20370;-72
2021/12/11 03:52:18;;;;;;;17.75;13.88;;;;;;;7.05;70.19;100514.78;2543702;23;20375;-72
2021/12/11 03:53:20;;;;;;;17.53;13.37;;;;;;;7.89;70.67;100642.59;2544709;23;20163;-72
2021/12/11 03:54:28;;;;;;;18.07;14.10;;;;;;;7.89;70.67;100646.13;2544835;23;20863;-72
2021/12/11 03:55:34;;;;;;;19.97;14.23;;;;;;;7.93;70.18;100643.31;2544551;23;20676;-72
2021/12/11 03:56:36;;;;;;;20.10;13.98;;;;;;;7.97;70.29;100647.59;2544770;23;20715;-72
2021/12/11 03:57:37;;;;;;;20.03;15.10;;;;;;;8.00;70.31;100643.22;2544717;23;20242;-72
2021/12/11 03:58:38;;;;;;;19.60;13.97;;;;;;;7.98;70.37;100640.09;2545339;23;20729;-72
2021/12/11 03:59:39;;;;;;;20.60;15.07;;;;;;;7.98;70.23;100640.09;2545679;23;20465;-72
2021/12/11 04:00:53;;;;;;;20.27;14.40;;;;;;;7.86;70.50;100624.09;2545811;23;20434;-72
2021/12/11 04:02:10;;;;;;;20.53;15.00;;;;;;;7.87;70.67;100636.69;2545478;23;20248;-72
2021/12/11 04:03:15;;;;;;;21.48;14.75;;;;;;;7.86;70.70;100624.09;2531574;23;20766;-72
2021/12/11 04:04:28;;;;;;;20.13;15.35;;;;;;;7.85;70.34;100628.06;2533635;23;20142;-72
2021/12/11 04:05:28;;;;;;;20.02;15.20;;;;;;;7.81;70.84;100613.50;2545715;23;20140;-72
2021/12/11 04:06:29;;;;;;;19.33;15.23;;;;;;;7.84;71.02;100618.97;2545565;23;20190;-72
2021/12/11 04:07:36;;;;;;;19.67;14.90;;;;;;;7.85;70.55;100634.34;2545687;23;20161;-72
2021/12/11 04:08:42;;;;;;;20.97;15.50;;;;;;;7.85;71.01;100630.81;2545556;23;20756;-72
2021/12/11 04:09:43;;;;;;;19.80;15.43;;;;;;;7.22;70.88;100524.06;2545476;23;20371;-72
2021/12/11 04:10:45;;;;;;;20.37;15.80;;;;;;;7.88;70.71;100630.75;2545424;23;20379;-72
2021/12/11 04:11:48;;;;;;;21.17;16.07;;;;;;;7.94;70.89;100622.81;2545503;23;20850;-72
2021/12/11 04:12:49;;;;;;;20.30;15.10;;;;;;;6.62;70.56;100419.28;2544042;23;20423;-72
2021/12/11 04:13:55;;;;;;;19.80;15.37;;;;;;;7.74;71.16;100610.84;2545524;23;20905;-72
2021/12/11 04:14:56;;;;;;;22.80;16.53;;;;;;;7.43;71.32;100595.47;2545738;23;20382;-72
2021/12/11 04:15:56;;;;;;;23.40;17.67;;;;;;;6.94;71.66;100507.84;2545594;23;20431;-72
2021/12/11 04:16:58;;;;;;;23.17;16.60;;;;;;;7.62;71.79;100600.34;2545584;23;20544;-72
2021/12/11 04:17:59;;;;;;;23.50;17.77;;;;;;;7.62;71.80;100612.19;2545532;23;20178;-72
2021/12/11 04:19:01;;;;;;;24.48;17.90;;;;;;;7.59;71.68;100628.78;2545649;23;20157;-72
2021/12/11 04:20:12;;;;;;;23.30;17.90;;;;;;;7.39;72.26;100600.25;2545527;23;20608;-72
2021/12/11 04:21:14;;;;;;;26.95;18.45;;;;;;;7.50;71.64;100614.69;2545512;23;20498;-72
2021/12/11 04:22:14;;;;;;;24.70;18.52;;;;;;;7.55;71.95;100615.03;2544450;23;20156;-72
2021/12/11 04:23:16;;;;;;;27.17;18.93;;;;;;;7.16;71.84;100554.03;2548213;23;20200;-72
2021/12/11 04:24:21;;;;;;;25.73;19.03;;;;;;;7.49;72.30;100602.09;2545518;23;20169;-72
2021/12/11 04:25:26;;;;;;;26.00;19.17;;;;;;;7.50;72.04;100601.69;2545613;23;20371;-72
2021/12/11 04:26:28;;;;;;;26.85;18.75;;;;;;;7.32;72.25;100581.81;2545310;23;20424;-72
2021/12/11 04:27:28;;;;;;;26.23;19.35;;;;;;;7.40;72.27;100605.34;2545627;23;20601;-72
2021/12/11 04:28:32;;;;;;;26.57;18.77;;;;;;;7.47;72.70;100609.97;2545548;23;20619;-72
2021/12/11 04:29:33;;;;;;;27.57;19.30;;;;;;;7.53;72.03;100616.63;2545579;23;20159;-72
2021/12/11 04:30:36;;;;;;;24.73;18.63;;;;;;;7.53;71.88;100606.38;2545409;23;20704;-72
2021/12/11 04:31:41;;;;;;;25.50;18.75;;;;;;;7.01;71.97;100532.53;2545472;23;20425;-72
2021/12/11 04:32:43;;;;;;;25.23;18.67;;;;;;;7.71;72.16;100631.78;2544217;23;20137;-72
2021/12/11 04:33:46;;;;;;;26.50;19.40;;;;;;;7.70;71.97;100613.63;2545306;23;20209;-72
2021/12/11 04:34:47;;;;;;;25.37;18.77;;;;;;;7.77;71.36;100621.84;2545513;23;20438;-72
2021/12/11 04:35:48;;;;;;;26.30;19.27;;;;;;;7.13;71.61;100524.53;2545557;23;20389;-72
2021/12/11 04:37:10;;;;;;;27.63;19.77;;;;;;;7.83;71.49;100619.38;2545691;23;20156;-72
2021/12/11 04:38:12;;;;;;;24.80;17.70;;;;;;;7.72;71.54;100611.25;2545475;23;20178;-72
2021/12/11 04:39:16;;;;;;;26.60;18.95;;;;;;;7.34;71.34;100551.06;2545414;23;20231;-72
2021/12/11 04:40:22;;;;;;;27.52;19.20;;;;;;;7.81;71.49;100630.06;2545506;23;20190;-72
2021/12/11 04:41:30;;;;;;;26.60;18.67;;;;;;;7.78;71.67;100623.41;2545529;23;20169;-72
2021/12/11 04:44:07;;;;;;;24.52;17.95;;;;;;;7.83;71.46;100631.22;2510728;23;20186;-72
2021/12/11 04:45:13;;;;;;;30.53;19.80;;;;;;;7.87;71.66;100639.44;2545522;23;20140;-72
2021/12/11 04:46:14;;;;;;;27.02;18.80;;;;;;;7.85;71.33;100644.59;2545366;23;20406;-72
2021/12/11 04:47:29;;;;;;;27.17;18.93;;;;;;;7.86;71.27;100646.97;2545292;23;20604;-72
2021/12/11 04:48:43;;;;;;;25.87;18.43;;;;;;;7.86;71.58;100646.16;2545544;23;20152;-72
2021/12/11 04:49:52;;;;;;;25.35;18.40;;;;;;;7.87;71.69;100656.78;2545498;23;20356;-72
2021/12/11 04:51:09;;;;;;;26.67;18.30;;;;;;;7.91;71.55;100649.25;2545610;23;20138;-72
2021/12/11 04:52:30;;;;;;;28.20;18.67;;;;;;;7.93;71.12;100657.09;2545181;23;20768;-72
2021/12/11 04:57:53;;;;;;;25.77;17.60;;;;;;;8.02;70.43;100654.63;2496026;23;20444;-72
2021/12/11 05:00:08;;;;;;;23.80;16.37;;;;;;;8.08;70.91;100666.75;2545489;23;20832;-72
2021/12/11 05:08:25;;;;;;;26.13;18.00;;;;;;;8.04;70.78;100690.88;2545204;23;20478;-72
2021/12/11 05:09:55;;;;;;;25.70;17.27;;;;;;;8.09;70.64;100695.94;2544310;23;20414;-72
2021/12/11 05:11:01;;;;;;;27.03;17.90;;;;;;;8.12;70.50;100703.38;2541899;23;20408;-72
2021/12/11 05:12:36;;;;;;;25.87;17.97;;;;;;;8.10;70.67;100714.84;2545650;23;20371;-72
2021/12/11 05:13:37;;;;;;;25.37;16.57;;;;;;;8.08;70.69;100713.69;2544299;23;20910;-72
2021/12/11 05:14:38;;;;;;;25.17;18.30;;;;;;;7.21;70.75;100591.38;2545256;23;20438;-72
2021/12/11 05:15:42;;;;;;;24.77;17.67;;;;;;;7.29;70.77;100593.63;2545414;23;20497;-72
2021/12/11 05:16:43;;;;;;;24.90;17.70;;;;;;;8.05;70.86;100720.03;2545450;23;20380;-72
2021/12/11 05:17:44;;;;;;;27.60;17.93;;;;;;;8.03;71.23;100717.69;2545331;23;20709;-72
2021/12/11 05:18:46;;;;;;;24.65;17.65;;;;;;;7.72;71.20;100674.72;2545493;23;20384;-72
2021/12/11 05:19:47;;;;;;;26.27;18.13;;;;;;;8.08;70.75;100721.97;2545335;23;20158;-72
2021/12/11 05:20:51;;;;;;;24.88;18.52;;;;;;;6.75;70.76;100503.72;2545260;23;20390;-72
2021/12/11 05:21:51;;;;;;;26.73;18.43;;;;;;;8.18;70.56;100721.84;2545397;23;20152;-72
2021/12/11 05:22:53;;;;;;;24.93;17.87;;;;;;;8.19;71.04;100723.41;2543895;23;20928;-72